地図

経路データ

SID SEASON NUMBER BASIN SUBBASIN NAME ISO_TIME NATURE LAT LON WMO_WIND WMO_PRES WMO_AGENCY TRACK_TYPE DIST2LAND LANDFALL IFLAG USA_AGENCY USA_ATCF_ID USA_LAT USA_LON USA_RECORD USA_STATUS USA_WIND USA_PRES USA_SSHS USA_R34_NE USA_R34_SE USA_R34_SW USA_R34_NW USA_R50_NE USA_R50_SE USA_R50_SW USA_R50_NW USA_R64_NE USA_R64_SE USA_R64_SW USA_R64_NW USA_POCI USA_ROCI USA_RMW USA_EYE TOKYO_LAT TOKYO_LON TOKYO_GRADE TOKYO_WIND TOKYO_PRES TOKYO_R50_DIR TOKYO_R50_LONG TOKYO_R50_SHORT TOKYO_R30_DIR TOKYO_R30_LONG TOKYO_R30_SHORT TOKYO_LAND CMA_LAT CMA_LON CMA_CAT CMA_WIND CMA_PRES HKO_LAT HKO_LON HKO_CAT HKO_WIND HKO_PRES NEWDELHI_LAT NEWDELHI_LON NEWDELHI_GRADE NEWDELHI_WIND NEWDELHI_PRES NEWDELHI_CI NEWDELHI_DP NEWDELHI_POCI REUNION_LAT REUNION_LON REUNION_TYPE REUNION_WIND REUNION_PRES REUNION_TNUM REUNION_CI REUNION_RMW REUNION_R34_NE REUNION_R34_SE REUNION_R34_SW REUNION_R34_NW REUNION_R50_NE REUNION_R50_SE REUNION_R50_SW REUNION_R50_NW REUNION_R64_NE REUNION_R64_SE REUNION_R64_SW REUNION_R64_NW BOM_LAT BOM_LON BOM_TYPE BOM_WIND BOM_PRES BOM_TNUM BOM_CI BOM_RMW BOM_R34_NE BOM_R34_SE BOM_R34_SW BOM_R34_NW BOM_R50_NE BOM_R50_SE BOM_R50_SW BOM_R50_NW BOM_R64_NE BOM_R64_SE BOM_R64_SW BOM_R64_NW BOM_ROCI BOM_POCI BOM_EYE BOM_POS_METHOD BOM_PRES_METHOD NADI_LAT NADI_LON NADI_CAT NADI_WIND NADI_PRES WELLINGTON_LAT WELLINGTON_LON WELLINGTON_WIND WELLINGTON_PRES DS824_LAT DS824_LON DS824_STAGE DS824_WIND DS824_PRES TD9636_LAT TD9636_LON TD9636_STAGE TD9636_WIND TD9636_PRES TD9635_LAT TD9635_LON TD9635_WIND TD9635_PRES TD9635_ROCI NEUMANN_LAT NEUMANN_LON NEUMANN_CLASS NEUMANN_WIND NEUMANN_PRES MLC_LAT MLC_LON MLC_CLASS MLC_WIND MLC_PRES USA_GUST BOM_GUST BOM_GUST_PER REUNION_GUST REUNION_GUST_PER USA_SEAHGT USA_SEARAD_NE USA_SEARAD_SE USA_SEARAD_SW USA_SEARAD_NW STORM_SPEED STORM_DIR
2020349S17187 2021 51 SP MM ZAZU 2020-12-13 12:00:00 NR -17.0000 -173.400 PROVISIONAL 368 368 O_____________ tcvitals SP062020 -17.0000 -173.400 35 1003 0 90 135 30 1008 190 80 7 190
2020349S17187 2021 51 SP MM ZAZU 2020-12-13 15:00:00 NR -17.3324 -173.463 PROVISIONAL 403 403 P_____________ SP062020 -17.3324 -173.463 35 1002 0 1008 187 70 6 198
2020349S17187 2021 51 SP MM ZAZU 2020-12-13 18:00:00 NR -17.6000 -173.600 PROVISIONAL 438 438 O_____________ tcvitals SP062020 -17.6000 -173.600 35 1002 0 1008 185 60 6 221
2020349S17187 2021 51 SP MM ZAZU 2020-12-13 21:00:00 NR -17.7651 -173.850 PROVISIONAL 468 468 P_____________ SP062020 -17.7651 -173.850 37 1001 0 1008 185 52 6 238
2020349S17187 2021 51 SP MM ZAZU 2020-12-14 00:00:00 NR -17.9000 -174.100 PROVISIONAL 486 486 O_____________ tcvitals SP062020 -17.9000 -174.100 39 1000 0 145 115 65 45 1008 185 45 5 228
2020349S17187 2021 51 SP MM ZAZU 2020-12-14 03:00:00 NR -18.0849 -174.223 PROVISIONAL 510 510 P_____________ SP062020 -18.0849 -174.223 42 997 0 145 115 65 45 1007 185 45 4 205
2020349S17187 2021 51 SP MM ZAZU 2020-12-14 06:00:00 NR -18.3000 -174.300 PROVISIONAL 535 535 O_____________ tcvitals SP062020 -18.3000 -174.300 45 995 0 145 115 65 45 1006 185 45 5 203
2020349S17187 2021 51 SP MM ZAZU 2020-12-14 09:00:00 NR -18.5725 -174.437 PROVISIONAL 570 570 P_____________ SP062020 -18.5725 -174.437 45 995 0 145 115 65 45 1006 192 45 5 201
2020349S17187 2021 51 SP MM ZAZU 2020-12-14 12:00:00 NR -18.8000 -174.500 PROVISIONAL 595 595 O_____________ tcvitals SP062020 -18.8000 -174.500 45 995 0 145 115 65 45 1006 200 45 3 171
2020349S17187 2021 51 SP MM ZAZU 2020-12-14 15:00:00 NR -18.8950 -174.380 PROVISIONAL 602 595 P_____________ SP062020 -18.8950 -174.380 45 993 0 147 105 62 110 1005 192 45 3 110
2020349S17187 2021 51 SP MM ZAZU 2020-12-14 18:00:00 NR -18.9000 -174.200 PROVISIONAL 595 582 O_____________ tcvitals SP062020 -18.9000 -174.200 45 992 0 150 95 60 175 1005 185 45 3 79
2020349S17187 2021 51 SP MM ZAZU 2020-12-14 21:00:00 NR -18.8424 -174.107 PROVISIONAL 582 579 P_____________ SP062020 -18.8424 -174.107 48 991 0 142 95 75 130 1005 185 45 2 62
2020349S17187 2021 51 SP MM ZAZU 2020-12-15 00:00:00 NR -18.8000 -174.000 PROVISIONAL 579 576 O_____________ tcvitals SP062020 -18.8000 -174.000 51 990 0 135 95 90 85 1005 185 45 2 91
2020349S17187 2021 51 SP MM ZAZU 2020-12-15 03:00:00 NR -18.8472 -173.875 PROVISIONAL 576 576 P_____________ SP062020 -18.8472 -173.875 48 991 0 152 107 82 77 1004 187 45 4 118
2020349S17187 2021 51 SP MM ZAZU 2020-12-15 06:00:00 NR -19.0000 -173.600 PROVISIONAL 591 589 O_____________ tcvitals SP062020 -19.0000 -173.600 45 992 0 170 120 75 70 1004 190 45 9 120
2020349S17187 2021 51 SP MM ZAZU 2020-12-15 09:00:00 NR -19.3003 -173.053 PROVISIONAL 617 617 P_____________ SP062020 -19.3003 -173.053 48 991 0 175 107 92 87 1004 190 37 13 118
2020349S17187 2021 51 SP MM ZAZU 2020-12-15 12:00:00 NR -19.6000 -172.400 PROVISIONAL 649 649 O_____________ tcvitals SP062020 -19.6000 -172.400 51 990 0 180 95 110 105 1004 190 30 12 108
2020349S17187 2021 51 SP MM ZAZU 2020-12-15 15:00:00 NR -19.6698 -171.834 PROVISIONAL 661 661 P_____________ SP062020 -19.6698 -171.834 52 987 0 187 110 118 135 1003 185 27 11 101
2020349S17187 2021 51 SP MM ZAZU 2020-12-15 18:00:00 NR -19.8000 -171.300 PROVISIONAL 678 678 O_____________ tcvitals SP062020 -19.8000 -171.300 54 985 0 195 126 126 165 1003 180 25 11 121
2020349S17187 2021 51 SP MM ZAZU 2020-12-15 21:00:00 NR -20.2394 -170.830 PROVISIONAL 731 731 P_____________ SP062020 -20.2394 -170.830 54 985 0 185 150 128 150 1003 180 25 14 137
2020349S17187 2021 51 SP MM ZAZU 2020-12-16 00:00:00 NR -20.8000 -170.300 PROVISIONAL 808 808 O_____________ tcvitals SP062020 -20.8000 -170.300 54 985 0 175 175 130 135 1003 180 25 15 131
2020349S17187 2021 51 SP MM ZAZU 2020-12-16 03:00:00 NR -21.2398 -169.608 PROVISIONAL 872 872 P_____________ SP062020 -21.2398 -169.608 54 985 0 175 175 130 135 1003 182 25 17 126
2020349S17187 2021 51 SP MM ZAZU 2020-12-16 06:00:00 NR -21.8000 -168.800 PROVISIONAL 964 964 O_____________ tcvitals SP062020 -21.8000 -168.800 54 985 0 175 175 130 135 1004 185 25 21 131
2020349S17187 2021 51 SP MM ZAZU 2020-12-16 09:00:00 NR -22.6025 -167.922 PROVISIONAL 1084 1084 P_____________ SP062020 -22.6025 -167.922 54 985 0 182 170 142 122 1004 185 25 25 137
2020349S17187 2021 51 SP MM ZAZU 2020-12-16 12:00:00 NR -23.6000 -167.000 PROVISIONAL 1225 1225 O_____________ tcvitals SP062020 -23.6000 -167.000 54 985 0 190 165 155 110 1004 185 25 27 142
2020349S17187 2021 51 SP MM ZAZU 2020-12-16 15:00:00 NR -24.7208 -166.096 PROVISIONAL 1376 1376 P_____________ SP062020 -24.7208 -166.096 52 987 0 175 147 112 107 1004 187 27 28 145
2020349S17187 2021 51 SP MM ZAZU 2020-12-16 18:00:00 NR -25.9000 -165.200 PROVISIONAL 1537 O_____________ tcvitals SP062020 -25.9000 -165.200 51 989 0 160 130 70 105 1004 190 30 29 146

デジタル台風データ・検索

IBTrACS Databaseについて

本データベースは、米国NOAAが公開する1842年以降の世界の熱帯低気圧のベストトラックデータアーカイブInternational Best Track Archive for Climate Stewardship (IBTrACS)を、ウェブで閲覧しやすい形式に変換したものです。

最終更新日:2021-11-26